Time;durP1;ratioP1;P1;durP2;ratioP2;P2;SDS_P1;SDS_P2;PMS_P1;PMS_P2;Temp;Humidity;BMP_temperature;BMP_pressure;BME280_temperature;BME280_humidity;BME280_pressure;Samples;Min_cycle;Max_cycle;Signal;HPM_P1;HPM_P2
2024/03/23 00:01:13;;;;;;;;;;;;;;;3.39;100.00;99184.81;5073899;28;19924;-69
2024/03/23 00:03:39;;;;;;;;;;;;;;;3.35;100.00;99189.56;5075435;28;19921;-70
2024/03/23 00:06:05;;;;;;;;;;;;;;;3.32;100.00;99183.81;5075591;28;19924;-67
2024/03/23 00:08:30;;;;;;;;;;;;;;;3.24;100.00;99176.69;5074974;28;19920;-68
2024/03/23 00:10:56;;;;;;;;;;;;;;;3.24;100.00;99175.88;5074859;28;19966;-65
2024/03/23 00:13:22;;;;;;;;;;;;;;;3.21;100.00;99166.47;5075059;28;19920;-68
2024/03/23 00:15:48;;;;;;;;;;;;;;;3.23;100.00;99167.16;5075173;28;19921;-68
2024/03/23 00:18:14;;;;;;;;;;;;;;;3.22;100.00;99157.59;5075240;28;19920;-66
2024/03/23 00:20:40;;;;;;;;;;;;;;;3.26;100.00;99164.19;5073676;28;19920;-67
2024/03/23 00:23:06;;;;;;;;;;;;;;;3.22;100.00;99157.59;5073442;28;19966;-67
2024/03/23 00:25:32;;;;;;;;;;;;;;;3.26;100.00;99153.69;5073082;28;20326;-67
2024/03/23 00:27:58;;;;;;;;;;;;;;;3.34;100.00;99150.25;5073470;28;19928;-68
2024/03/23 00:30:23;;;;;;;;;;;;;;;3.34;100.00;99140.56;5074149;28;19921;-67
2024/03/23 00:32:49;;;;;;;;;;;;;;;3.26;100.00;99145.78;5074493;28;19921;-69
2024/03/23 00:35:15;;;;;;;;;;;;;;;3.18;100.00;99139.63;5040729;28;19924;-70
2024/03/23 00:37:41;;;;;;;;;;;;;;;3.15;100.00;99140.75;5074068;28;19924;-67
2024/03/23 00:40:07;;;;;;;;;;;;;;;3.16;100.00;99133.69;5056185;28;20441;-69
2024/03/23 00:42:33;;;;;;;;;;;;;;;3.11;100.00;99123.66;5074974;28;20023;-67
2024/03/23 00:44:59;;;;;;;;;;;;;;;3.04;100.00;99133.13;5074794;28;19927;-68
2024/03/23 00:47:24;;;;;;;;;;;;;;;3.01;100.00;99130.81;5073523;28;19924;-67
2024/03/23 00:49:50;;;;;;;;;;;;;;;2.92;100.00;99123.88;5076360;28;19920;-64
2024/03/23 00:52:16;;;;;;;;;;;;;;;2.86;100.00;99111.31;5078082;28;19920;-67
2024/03/23 00:54:42;;;;;;;;;;;;;;;2.78;100.00;99110.28;5076025;28;20375;-68
2024/03/23 00:57:07;;;;;;;;;;;;;;;2.80;100.00;99104.88;5074007;28;19951;-67
2024/03/23 00:59:32;;;;;;;;;;;;;;;2.80;100.00;99105.69;5074183;28;20375;-69
2024/03/23 01:01:58;;;;;;;;;;;;;;;2.87;100.00;99091.91;5074679;28;20458;-68
2024/03/23 01:04:23;;;;;;;;;;;;;;;2.90;100.00;99099.53;5074352;28;19920;-67
2024/03/23 01:06:48;;;;;;;;;;;;;;;2.90;100.00;99086.38;5074160;28;19924;-67
2024/03/23 01:09:14;;;;;;;;;;;;;;;2.98;100.00;99089.06;5074832;28;19927;-65
2024/03/23 01:11:39;;;;;;;;;;;;;;;2.99;100.00;99082.81;5075176;28;20012;-67
2024/03/23 01:14:05;;;;;;;;;;;;;;;3.03;100.00;99074.47;5074665;28;19956;-68
2024/03/23 01:16:31;;;;;;;;;;;;;;;3.03;100.00;99063.94;5075072;28;19920;-68
2024/03/23 01:18:57;;;;;;;;;;;;;;;3.01;100.00;99071.16;5075233;28;19932;-68
2024/03/23 01:21:22;;;;;;;;;;;;;;;3.00;100.00;99061.63;5074087;28;19920;-67
2024/03/23 01:23:48;;;;;;;;;;;;;;;2.98;100.00;99052.25;5074668;28;20398;-66
2024/03/23 01:26:14;;;;;;;;;;;;;;;2.93;100.00;99049.25;5075089;28;20013;-67
2024/03/23 01:28:40;;;;;;;;;;;;;;;2.90;100.00;99047.75;5075068;28;19927;-68
2024/03/23 01:31:05;;;;;;;;;;;;;;;2.90;100.00;99041.69;5074100;28;19920;-65
2024/03/23 01:33:30;;;;;;;;;;;;;;;2.93;100.00;99030.84;5076605;28;19927;-68
2024/03/23 01:35:56;;;;;;;;;;;;;;;2.92;100.00;99022.13;5077217;28;19934;-67
2024/03/23 01:38:21;;;;;;;;;;;;;;;2.90;100.00;99023.28;5075927;28;19920;-65
2024/03/23 01:40:46;;;;;;;;;;;;;;;2.93;100.00;99015.91;5074500;28;19969;-69
2024/03/23 01:43:12;;;;;;;;;;;;;;;2.96;100.00;99009.50;5074531;28;19924;-66
2024/03/23 01:45:37;;;;;;;;;;;;;;;3.03;100.00;99013.16;5075016;28;19932;-67
2024/03/23 01:48:03;;;;;;;;;;;;;;;3.03;100.00;99005.25;5072612;28;19921;-65
2024/03/23 01:50:30;;;;;;;;;;;;;;;3.01;100.00;98994.91;5072444;28;19970;-67
2024/03/23 01:52:56;;;;;;;;;;;;;;;3.01;100.00;98996.69;5055794;28;19928;-69
2024/03/23 01:55:21;;;;;;;;;;;;;;;3.03;100.00;98986.84;5073820;28;19921;-67
2024/03/23 01:57:47;;;;;;;;;;;;;;;3.05;100.00;98990.13;5054528;28;20310;-67
2024/03/23 02:00:13;;;;;;;;;;;;;;;3.05;100.00;98983.06;5072225;28;20304;-68
2024/03/23 02:02:45;;;;;;;;;;;;;;;3.03;100.00;98978.97;5088629;28;19927;-67
2024/03/23 02:05:13;;;;;;;;;;;;;;;3.05;100.00;98966.47;5054936;28;20345;-64
2024/03/23 02:07:40;;;;;;;;;;;;;;;3.08;100.00;98968.78;5071722;28;20010;-69
2024/03/23 02:10:18;;;;;;;;;;;;;;;3.11;100.00;98971.91;5073078;28;20026;-67
2024/03/23 02:12:43;;;;;;;;;;;;;;;3.14;100.00;98965.50;5073062;28;19920;-69
2024/03/23 02:15:09;;;;;;;;;;;;;;;3.13;100.00;98960.41;5071763;28;19920;-67
2024/03/23 02:17:35;;;;;;;;;;;;;;;3.17;100.00;98965.19;5075077;28;20371;-65
2024/03/23 02:20:00;;;;;;;;;;;;;;;3.19;100.00;98947.47;5077972;28;20403;-69
2024/03/23 02:22:35;;;;;;;;;;;;;;;3.22;100.00;98962.94;5075108;28;19927;-65
2024/03/23 02:25:02;;;;;;;;;;;;;;;3.24;100.00;98953.06;5073220;28;19929;-67
2024/03/23 02:27:28;;;;;;;;;;;;;;;3.25;100.00;98953.88;5072179;28;19951;-68
2024/03/23 02:29:53;;;;;;;;;;;;;;;3.24;100.00;98947.81;5072273;28;20307;-69
2024/03/23 02:32:18;;;;;;;;;;;;;;;3.28;100.00;98948.31;5073553;28;20299;-66
2024/03/23 02:34:44;;;;;;;;;;;;;;;3.31;100.00;98940.91;5073823;28;19964;-68
2024/03/23 02:37:12;;;;;;;;;;;;;;;3.30;100.00;98936.63;5076888;28;19928;-68
2024/03/23 02:39:37;;;;;;;;;;;;;;;3.31;100.00;98943.53;5077123;28;20031;-68
2024/03/23 02:42:03;;;;;;;;;;;;;;;3.31;100.00;98938.28;5073851;28;20009;-67
2024/03/23 02:44:28;;;;;;;;;;;;;;;3.34;100.00;98930.06;5073858;28;19920;-68
2024/03/23 02:46:53;;;;;;;;;;;;;;;3.26;100.00;98930.06;5073949;28;19927;-68
2024/03/23 02:49:21;;;;;;;;;;;;;;;3.28;100.00;98925.44;5074022;28;19935;-66
2024/03/23 02:51:48;;;;;;;;;;;;;;;3.30;100.00;98922.66;5072687;28;20018;-67
2024/03/23 02:54:13;;;;;;;;;;;;;;;3.27;100.00;98929.06;5054840;28;20295;-67
2024/03/23 02:56:39;;;;;;;;;;;;;;;3.27;100.00;98923.81;5072479;28;19927;-67
2024/03/23 02:59:04;;;;;;;;;;;;;;;3.30;100.00;98923.47;5072227;28;19960;-65
2024/03/23 03:01:30;;;;;;;;;;;;;;;3.32;100.00;98916.25;5071953;28;19920;-66
2024/03/23 03:03:55;;;;;;;;;;;;;;;3.39;100.00;98916.41;5071907;28;19920;-70
2024/03/23 03:06:27;;;;;;;;;;;;;;;3.42;100.00;98921.34;5072154;28;19921;-68
2024/03/23 03:08:52;;;;;;;;;;;;;;;3.46;100.00;98916.59;5071744;28;19929;-68
2024/03/23 03:11:18;;;;;;;;;;;;;;;3.47;100.00;98910.34;5070344;28;20343;-67
2024/03/23 03:13:43;;;;;;;;;;;;;;;3.50;100.00;98904.78;5072089;28;19921;-69
2024/03/23 03:16:12;;;;;;;;;;;;;;;3.49;100.00;98900.50;5072059;28;19927;-68
2024/03/23 03:18:37;;;;;;;;;;;;;;;3.48;100.00;98909.38;5071928;28;19969;-68
2024/03/23 03:21:05;;;;;;;;;;;;;;;3.45;100.00;98905.25;5071681;28;20383;-68
2024/03/23 03:23:30;;;;;;;;;;;;;;;3.47;100.00;98899.81;5071748;28;20011;-66
2024/03/23 03:25:57;;;;;;;;;;;;;;;3.52;100.00;98905.44;5053536;28;20019;-67
2024/03/23 03:28:23;;;;;;;;;;;;;;;3.52;100.00;98897.53;5070431;28;19936;-67
2024/03/23 03:30:48;;;;;;;;;;;;;;;3.43;100.00;98892.25;5071912;28;19920;-66
2024/03/23 03:33:13;;;;;;;;;;;;;;;3.36;100.00;98904.41;5071790;28;19928;-66
2024/03/23 03:35:39;;;;;;;;;;;;;;;3.30;100.00;98897.16;5071555;28;19920;-64
2024/03/23 03:38:04;;;;;;;;;;;;;;;3.26;100.00;98895.03;5070241;28;19927;-66
2024/03/23 03:40:30;;;;;;;;;;;;;;;3.28;100.00;98888.63;5070255;28;19921;-67
2024/03/23 03:42:55;;;;;;;;;;;;;;;3.31;100.00;98893.56;5073442;28;19920;-68
2024/03/23 03:45:21;;;;;;;;;;;;;;;3.30;100.00;98875.31;5073601;28;19921;-69
2024/03/23 03:47:46;;;;;;;;;;;;;;;3.25;100.00;98874.97;5070377;28;19976;-65
2024/03/23 03:50:11;;;;;;;;;;;;;;;3.26;100.00;98877.44;5071921;28;20455;-64
2024/03/23 03:52:37;;;;;;;;;;;;;;;3.30;100.00;98880.56;5070426;28;19971;-64
2024/03/23 03:55:02;;;;;;;;;;;;;;;3.31;100.00;98877.75;5071732;28;19926;-68
2024/03/23 03:57:29;;;;;;;;;;;;;;;3.31;100.00;98872.50;5070110;28;19966;-68
2024/03/23 03:59:54;;;;;;;;;;;;;;;3.36;100.00;98864.94;5071355;28;19963;-68
2024/03/23 04:02:19;;;;;;;;;;;;;;;3.41;100.00;98864.44;5070349;28;20031;-69
2024/03/23 04:04:45;;;;;;;;;;;;;;;3.41;100.00;98867.06;5071401;28;19920;-71
2024/03/23 04:07:10;;;;;;;;;;;;;;;3.44;100.00;98872.00;5071551;28;20376;-68
2024/03/23 04:09:36;;;;;;;;;;;;;;;3.49;100.00;98869.75;5071672;28;19924;-65
2024/03/23 04:12:01;;;;;;;;;;;;;;;3.49;100.00;98866.28;5071812;28;19989;-65
2024/03/23 04:14:26;;;;;;;;;;;;;;;3.53;100.00;98864.97;5070173;28;20022;-67
2024/03/23 04:16:52;;;;;;;;;;;;;;;3.56;100.00;98865.47;5070518;28;19927;-67
2024/03/23 04:19:17;;;;;;;;;;;;;;;3.62;100.00;98869.25;5072019;28;20027;-67
2024/03/23 04:21:42;;;;;;;;;;;;;;;3.65;100.00;98861.00;5089036;28;19921;-68
2024/03/23 04:24:08;;;;;;;;;;;;;;;3.67;100.00;98870.38;5076857;28;19932;-70
2024/03/23 04:26:43;;;;;;;;;;;;;;;3.69;100.00;98878.13;5077169;28;19931;-69
2024/03/23 04:29:08;;;;;;;;;;;;;;;3.70;100.00;98882.41;5077264;28;19925;-67
2024/03/23 04:31:34;;;;;;;;;;;;;;;3.65;100.00;98879.44;5077167;28;19927;-65
2024/03/23 04:34:00;;;;;;;;;;;;;;;3.61;100.00;98888.66;5078817;28;19927;-68
2024/03/23 04:36:25;;;;;;;;;;;;;;;3.60;100.00;98893.09;5080464;28;20005;-67
2024/03/23 04:38:52;;;;;;;;;;;;;;;3.58;100.00;98888.97;5081950;28;20338;-68
2024/03/23 04:41:18;;;;;;;;;;;;;;;3.53;100.00;98889.47;5082007;28;19932;-66
2024/03/23 04:43:43;;;;;;;;;;;;;;;3.49;100.00;98892.59;5074952;28;19966;-68
2024/03/23 04:46:08;;;;;;;;;;;;;;;3.49;100.00;98889.97;5074201;28;19990;-68
2024/03/23 04:48:34;;;;;;;;;;;;;;;3.46;100.00;98895.53;5074500;28;20435;-66
2024/03/23 04:50:59;;;;;;;;;;;;;;;3.45;100.00;98888.63;5075239;28;20021;-66
2024/03/23 04:53:28;;;;;;;;;;;;;;;3.36;100.00;98907.03;5074420;28;19921;-68
2024/03/23 04:55:53;;;;;;;;;;;;;;;3.36;100.00;98900.97;5074462;28;19921;-68
2024/03/23 04:58:19;;;;;;;;;;;;;;;3.34;100.00;98900.28;5073136;28;19966;-67
2024/03/23 05:00:44;;;;;;;;;;;;;;;3.37;100.00;98902.59;5074253;28;19920;-70
2024/03/23 05:03:09;;;;;;;;;;;;;;;3.38;100.00;98894.53;5074265;28;20029;-67
2024/03/23 05:05:35;;;;;;;;;;;;;;;3.37;100.00;98898.16;5074720;28;20015;-70
2024/03/23 05:08:00;;;;;;;;;;;;;;;3.38;100.00;98898.97;5074812;28;19991;-69
2024/03/23 05:10:25;;;;;;;;;;;;;;;3.41;100.00;98906.56;5074394;28;19963;-67
2024/03/23 05:12:51;;;;;;;;;;;;;;;3.42;100.00;98906.38;5074185;28;19924;-68
2024/03/23 05:15:16;;;;;;;;;;;;;;;3.41;100.00;98903.91;5074025;28;20337;-68
2024/03/23 05:17:42;;;;;;;;;;;;;;;3.38;100.00;98898.97;5074094;28;19936;-69
2024/03/23 05:20:09;;;;;;;;;;;;;;;3.31;100.00;98901.44;5074116;28;20364;-65
2024/03/23 05:22:38;;;;;;;;;;;;;;;3.31;100.00;98898.81;5075056;28;19963;-65
2024/03/23 05:25:07;;;;;;;;;;;;;;;3.29;100.00;98906.06;5080472;28;19924;-69
2024/03/23 05:27:33;;;;;;;;;;;;;;;3.25;100.00;98910.00;5080434;28;19928;-68
2024/03/23 05:29:58;;;;;;;;;;;;;;;3.28;100.00;98912.28;5079328;28;19920;-66
2024/03/23 05:32:24;;;;;;;;;;;;;;;3.33;100.00;98899.47;5095157;28;19920;-68
2024/03/23 05:34:51;;;;;;;;;;;;;;;3.33;100.00;98907.38;5081114;28;19920;-64
2024/03/23 05:37:17;;;;;;;;;;;;;;;3.36;100.00;98909.66;5080198;28;20011;-68
2024/03/23 05:39:42;;;;;;;;;;;;;;;3.42;100.00;98898.50;5080302;28;19986;-66
2024/03/23 05:42:08;;;;;;;;;;;;;;;3.48;100.00;98904.13;5094786;28;19927;-67
2024/03/23 05:44:33;;;;;;;;;;;;;;;3.46;100.00;98899.00;5079186;28;19920;-65
2024/03/23 05:46:59;;;;;;;;;;;;;;;3.49;100.00;98903.13;5079076;28;19927;-66
2024/03/23 05:49:24;;;;;;;;;;;;;;;3.53;100.00;98899.19;5079821;28;19967;-67
2024/03/23 05:51:50;;;;;;;;;;;;;;;3.47;100.00;98903.28;5077959;28;20001;-66
2024/03/23 05:54:15;;;;;;;;;;;;;;;3.45;100.00;98904.41;5073440;28;19921;-69
2024/03/23 05:56:40;;;;;;;;;;;;;;;3.43;100.00;98915.09;5072538;28;19927;-68
2024/03/23 05:59:06;;;;;;;;;;;;;;;3.42;100.00;98916.09;5071580;28;19920;-68
2024/03/23 06:01:32;;;;;;;;;;;;;;;3.40;100.00;98913.63;5071249;28;19944;-68
2024/03/23 06:03:57;;;;;;;;;;;;;;;3.39;100.00;98913.78;5072354;28;19932;-68
2024/03/23 06:06:23;;;;;;;;;;;;;;;3.42;100.00;98916.91;5088070;28;20081;-69
2024/03/23 06:08:49;;;;;;;;;;;;;;;3.45;100.00;98912.31;5072429;28;19920;-68
2024/03/23 06:11:14;;;;;;;;;;;;;;;3.47;100.00;98911.19;5071579;28;19928;-70
2024/03/23 06:13:39;;;;;;;;;;;;;;;3.48;100.00;98914.66;5072234;28;19921;-70
2024/03/23 06:16:05;;;;;;;;;;;;;;;3.49;100.00;98921.56;5071004;28;19927;-65
2024/03/23 06:18:31;;;;;;;;;;;;;;;3.57;100.00;98918.94;5071647;28;20333;-68
2024/03/23 06:20:57;;;;;;;;;;;;;;;3.66;100.00;98917.94;5071884;28;19921;-66
2024/03/23 06:23:22;;;;;;;;;;;;;;;3.74;100.00;98925.84;5072993;28;20283;-69
2024/03/23 06:25:50;;;;;;;;;;;;;;;3.75;100.00;98924.84;5069236;28;19924;-68
2024/03/23 06:28:15;;;;;;;;;;;;;;;3.73;100.00;98918.91;5073252;28;19925;-68
2024/03/23 06:30:41;;;;;;;;;;;;;;;3.70;100.00;98925.34;5072261;28;19927;-69
2024/03/23 06:33:06;;;;;;;;;;;;;;;3.63;100.00;98923.53;5073707;28;19920;-65
2024/03/23 06:35:31;;;;;;;;;;;;;;;3.62;100.00;98927.16;5077384;28;19920;-68
2024/03/23 06:37:58;;;;;;;;;;;;;;;3.62;100.00;98922.72;5068778;28;19924;-69
2024/03/23 06:40:23;;;;;;;;;;;;;;;3.66;100.00;98925.84;5062062;28;19947;-65
2024/03/23 06:42:48;;;;;;;;;;;;;;;3.74;100.00;98921.38;5043542;28;20324;-72
2024/03/23 06:45:14;;;;;;;;;;;;;;;3.77;100.00;98920.28;5064833;28;19924;-70
2024/03/23 06:47:39;;;;;;;;;;;;;;;3.82;100.00;98923.22;5054772;28;19928;-69
2024/03/23 06:50:05;;;;;;;;;;;;;;;3.88;100.00;98922.56;5070483;28;20428;-71
2024/03/23 06:52:31;;;;;;;;;;;;;;;3.87;100.00;98931.44;5060767;28;20382;-67
2024/03/23 06:54:57;;;;;;;;;;;;;;;3.90;100.00;98923.22;5053806;28;19925;-66
2024/03/23 06:57:22;;;;;;;;;;;;;;;3.98;100.00;98923.22;5070595;28;19954;-70
2024/03/23 06:59:48;;;;;;;;;;;;;;;4.01;100.00;98922.88;5070630;28;20007;-67
2024/03/23 07:02:14;;;;;;;;;;;;;;;4.09;100.00;98929.16;5070519;28;19924;-69
2024/03/23 07:04:39;;;;;;;;;;;;;;;4.14;100.00;98924.19;5058804;28;19921;-67
2024/03/23 07:07:05;;;;;;;;;;;;;;;4.18;100.00;98928.97;5069760;28;19954;-71
2024/03/23 07:09:30;;;;;;;;;;;;;;;4.15;100.00;98933.75;5068217;28;19921;-66
2024/03/23 07:11:59;;;;;;;;;;;;;;;4.08;100.00;98938.03;5060008;28;20037;-70
2024/03/23 07:14:24;;;;;;;;;;;;;;;4.05;100.00;98941.84;5071956;28;19921;-70
2024/03/23 07:16:50;;;;;;;;;;;;;;;4.02;100.00;98939.50;5085067;28;20444;-67
2024/03/23 07:19:16;;;;;;;;;;;;;;;3.99;100.00;98939.84;5066941;28;19925;-67
2024/03/23 07:21:42;;;;;;;;;;;;;;;4.01;100.00;98949.22;5069735;28;19932;-70
2024/03/23 07:24:09;;;;;;;;;;;;;;;3.96;100.00;98948.88;5067969;28;20388;-67
2024/03/23 07:26:35;;;;;;;;;;;;;;;3.96;100.00;98946.25;5069539;28;20314;-69
2024/03/23 07:29:01;;;;;;;;;;;;;;;3.93;100.00;98951.03;5085299;28;19929;-69
2024/03/23 07:31:27;;;;;;;;;;;;;;;3.86;100.00;98940.34;5070987;28;19924;-71
2024/03/23 07:33:52;;;;;;;;;;;;;;;3.85;100.00;98949.22;5068028;28;19927;-75
2024/03/23 07:36:17;;;;;;;;;;;;;;;3.86;100.00;98945.59;5071924;28;19928;-69
2024/03/23 07:38:46;;;;;;;;;;;;;;;3.86;100.00;98947.41;5068465;28;19920;-73
2024/03/23 07:41:14;;;;;;;;;;;;;;;3.87;100.00;98956.97;5063868;28;19925;-71
2024/03/23 07:43:40;;;;;;;;;;;;;;;3.82;100.00;98954.81;5066468;28;19920;-70
2024/03/23 07:46:05;;;;;;;;;;;;;;;3.84;100.00;98957.28;5083748;28;20316;-71
2024/03/23 07:48:31;;;;;;;;;;;;;;;3.76;100.00;98958.13;5074355;28;19924;-68
2024/03/23 07:51:00;;;;;;;;;;;;;;;3.70;100.00;98967.47;5072220;28;19947;-67
2024/03/23 07:53:27;;;;;;;;;;;;;;;3.69;100.00;98976.34;5068843;28;19924;-69
2024/03/23 07:55:56;;;;;;;;;;;;;;;3.71;100.00;98970.91;5070217;28;20036;-73
2024/03/23 07:58:22;;;;;;;;;;;;;;;3.68;100.00;98968.63;5054306;28;19934;-72
2024/03/23 08:00:47;;;;;;;;;;;;;;;3.68;100.00;98973.88;5065803;28;20415;-67
2024/03/23 08:03:12;;;;;;;;;;;;;;;3.72;100.00;98977.84;5073226;28;19963;-70
2024/03/23 08:05:38;;;;;;;;;;;;;;;3.64;100.00;98983.09;5076219;28;20302;-68
2024/03/23 08:08:03;;;;;;;;;;;;;;;3.63;100.00;98984.06;5070770;28;19921;-68
2024/03/23 08:10:29;;;;;;;;;;;;;;;3.55;100.00;98989.34;5071604;28;20043;-69
2024/03/23 08:12:54;;;;;;;;;;;;;;;3.48;100.00;98988.34;5073239;28;19998;-68
2024/03/23 08:15:19;;;;;;;;;;;;;;;3.38;100.00;98991.09;5071675;28;19920;-67
2024/03/23 08:17:45;;;;;;;;;;;;;;;3.25;100.00;98996.81;5068571;28;19927;-66
2024/03/23 08:20:10;;;;;;;;;;;;;;;3.20;100.00;98999.09;5062642;28;20416;-68
2024/03/23 08:22:36;;;;;;;;;;;;;;;3.26;100.00;99003.72;5075581;28;20284;-70
2024/03/23 08:25:02;;;;;;;;;;;;;;;3.29;100.00;99011.28;5057934;28;19931;-68
2024/03/23 08:27:28;;;;;;;;;;;;;;;3.25;100.00;99012.59;5072153;28;20481;-68
2024/03/23 08:29:53;;;;;;;;;;;;;;;3.28;100.00;99009.63;5072695;28;19924;-67
2024/03/23 08:32:18;;;;;;;;;;;;;;;3.23;100.00;99022.44;5072841;28;19927;-66
2024/03/23 08:34:44;;;;;;;;;;;;;;;3.25;100.00;99019.66;5070599;28;19959;-65
2024/03/23 08:37:09;;;;;;;;;;;;;;;3.14;100.00;99026.00;5073077;28;20484;-65
2024/03/23 08:39:34;;;;;;;;;;;;;;;3.10;100.00;99032.56;5072441;28;19924;-67
2024/03/23 08:41:59;;;;;;;;;;;;;;;3.08;100.00;99024.00;5073323;28;19924;-69
2024/03/23 08:44:25;;;;;;;;;;;;;;;3.13;100.00;99037.50;5072171;28;20023;-67
2024/03/23 08:46:50;;;;;;;;;;;;;;;3.11;100.00;99028.97;5070993;28;19927;-65
2024/03/23 08:49:15;;;;;;;;;;;;;;;3.07;100.00;99028.44;5073611;28;19920;-66
2024/03/23 08:51:41;;;;;;;;;;;;;;;3.07;100.00;99028.44;5070570;28;19920;-67
2024/03/23 08:54:06;;;;;;;;;;;;;;;3.07;100.00;99035.50;5072351;28;20283;-64
2024/03/23 08:56:32;;;;;;;;;;;;;;;3.12;100.00;99038.50;5070521;28;20395;-65
2024/03/23 08:58:57;;;;;;;;;;;;;;;3.09;100.00;99033.56;5067018;28;20431;-66
2024/03/23 09:01:22;;;;;;;;;;;;;;;3.19;100.00;99023.75;5087273;28;19928;-67
2024/03/23 09:03:48;;;;;;;;;;;;;;;3.23;100.00;99037.41;5055605;28;19970;-67
2024/03/23 09:06:14;;;;;;;;;;;;;;;3.23;100.00;99038.25;5070454;28;19924;-64
2024/03/23 09:08:40;;;;;;;;;;;;;;;3.27;100.00;99039.56;5070383;28;20403;-65
2024/03/23 09:11:12;;;;;;;;;;;;;;;3.29;100.00;99037.59;5072622;28;19951;-67
2024/03/23 09:13:38;;;;;;;;;;;;;;;3.30;100.00;99041.88;5071842;28;20304;-66
2024/03/23 09:16:05;;;;;;;;;;;;;;;3.27;100.00;99044.81;5070926;28;19932;-65
2024/03/23 09:18:35;;;;;;;;;;;;;;;3.16;100.00;99047.72;5068742;28;19978;-67
2024/03/23 09:21:00;;;;;;;;;;;;;;;3.13;100.00;99058.56;5068917;28;19920;-64
2024/03/23 09:23:25;;;;;;;;;;;;;;;3.11;100.00;99044.72;5065625;28;20421;-68
2024/03/23 09:25:53;;;;;;;;;;;;;;;3.07;100.00;99048.66;5077300;28;19924;-66
2024/03/23 09:28:18;;;;;;;;;;;;;;;3.08;100.00;99060.84;5065097;28;19954;-66
2024/03/23 09:30:44;;;;;;;;;;;;;;;3.22;100.00;99068.16;5062026;28;19929;-67
2024/03/23 09:33:09;;;;;;;;;;;;;;;3.23;100.00;99066.34;5064613;28;19924;-66
2024/03/23 09:35:38;;;;;;;;;;;;;;;3.24;100.00;99086.41;5062387;28;19921;-67
2024/03/23 09:38:04;;;;;;;;;;;;;;;3.08;100.00;99073.97;5054631;28;19925;-69
2024/03/23 09:40:29;;;;;;;;;;;;;;;3.13;100.00;99084.84;5052896;28;19931;-70
2024/03/23 09:42:55;;;;;;;;;;;;;;;3.11;100.00;99081.56;5071241;28;19920;-67
2024/03/23 09:45:21;;;;;;;;;;;;;;;3.08;100.00;99085.31;5062162;28;19959;-67
2024/03/23 09:47:46;;;;;;;;;;;;;;;3.07;100.00;99074.97;5064445;28;20303;-67
2024/03/23 09:50:13;;;;;;;;;;;;;;;3.01;100.00;99086.13;5065901;28;19924;-67
2024/03/23 09:52:38;;;;;;;;;;;;;;;3.03;100.00;99084.97;5067650;28;20037;-67
2024/03/23 09:55:04;;;;;;;;;;;;;;;3.11;100.00;99095.53;5065440;28;20311;-67
2024/03/23 09:57:29;;;;;;;;;;;;;;;3.17;100.00;99096.72;5065439;28;20307;-70
2024/03/23 09:59:56;;;;;;;;;;;;;;;3.13;100.00;99100.63;5062440;28;20428;-68
2024/03/23 10:02:22;;;;;;;;;;;;;;;3.17;100.00;99107.22;5066179;28;19936;-72
2024/03/23 10:04:48;;;;;;;;;;;;;;;3.25;100.00;99101.22;5064957;28;19925;-71
2024/03/23 10:07:14;;;;;;;;;;;;;;;3.15;100.00;99101.31;5071343;28;19924;-70
2024/03/23 10:09:39;;;;;;;;;;;;;;;3.23;100.00;99111.06;5078006;28;19977;-67
2024/03/23 10:12:08;;;;;;;;;;;;;;;3.22;100.00;99115.50;5071798;28;19928;-73
2024/03/23 10:14:34;;;;;;;;;;;;;;;3.26;100.00;99111.59;5066936;28;20341;-72
2024/03/23 10:17:19;;;;;;;;;;;;;;;3.23;100.00;99122.41;5063251;28;19921;-76
2024/03/23 10:19:45;;;;;;;;;;;;;;;3.22;100.00;99125.22;5059448;28;20410;-74
2024/03/23 10:22:13;;;;;;;;;;;;;;;3.11;100.00;99127.09;5067312;28;19935;-73
2024/03/23 10:24:39;;;;;;;;;;;;;;;3.13;100.00;99120.84;5070252;28;19929;-72
2024/03/23 10:27:05;;;;;;;;;;;;;;;3.29;100.00;99127.06;5068946;28;19931;-75
2024/03/23 10:29:30;;;;;;;;;;;;;;;3.31;100.00;99130.34;5066217;28;19924;-71
2024/03/23 10:32:07;;;;;;;;;;;;;;;3.37;100.00;99134.97;5057929;28;20006;-71
2024/03/23 10:34:32;;;;;;;;;;;;;;;3.43;100.00;99139.63;5058176;28;19924;-69
2024/03/23 10:36:58;;;;;;;;;;;;;;;3.49;100.00;99134.72;5063184;28;20349;-67
2024/03/23 10:39:24;;;;;;;;;;;;;;;3.53;100.00;99138.69;5059610;28;20330;-66
2024/03/23 10:41:50;;;;;;;;;;;;;;;3.60;100.00;99144.97;5074535;28;19964;-67
2024/03/23 10:44:19;;;;;;;;;;;;;;;3.60;100.00;99155.50;5060649;28;20019;-67
2024/03/23 10:46:44;;;;;;;;;;;;;;;3.53;100.00;99150.06;5064497;28;19936;-69
2024/03/23 10:49:10;;;;;;;;;;;;;;;3.35;100.00;99146.66;5071847;28;20030;-67
2024/03/23 10:51:36;;;;;;;;;;;;;;;3.37;100.00;99152.59;5064792;28;20017;-67
2024/03/23 10:54:04;;;;;;;;;;;;;;;3.42;100.00;99152.94;5069851;28;19931;-66
2024/03/23 10:56:34;;;;;;;;;;;;;;;3.45;100.00;99151.78;5059139;28;19981;-67
2024/03/23 10:59:02;;;;;;;;;;;;;;;3.43;100.00;99160.66;5067444;28;20225;-67
2024/03/23 11:01:29;;;;;;;;;;;;;;;3.43;100.00;99154.59;5058081;28;20003;-66
2024/03/23 11:03:54;;;;;;;;;;;;;;;3.41;100.00;99164.44;5057715;28;19921;-65
2024/03/23 11:06:38;;;;;;;;;;;;;;;3.48;100.00;99154.13;5060741;28;19980;-67
2024/03/23 11:09:03;;;;;;;;;;;;;;;3.51;100.00;99161.72;5067463;28;19931;-63
2024/03/23 11:11:31;;;;;;;;;;;;;;;3.47;100.00;99160.34;5068647;28;19924;-65
2024/03/23 11:13:56;;;;;;;;;;;;;;;3.41;100.00;99162.63;5056990;28;19925;-68
2024/03/23 11:16:35;;;;;;;;;;;;;;;3.39;100.00;99158.50;5060450;28;19970;-66
2024/03/23 11:19:19;;;;;;;;;;;;;;;3.45;100.00;99162.31;5068031;28;19938;-66
2024/03/23 11:21:53;;;;;;;;;;;;;;;3.44;100.00;99161.50;5060349;28;19928;-65
2024/03/23 11:24:20;;;;;;;;;;;;;;;3.38;100.00;99173.47;5068286;28;19946;-68
2024/03/23 11:26:46;;;;;;;;;;;;;;;3.33;100.00;99165.22;5058020;28;19924;-64
2024/03/23 11:29:12;;;;;;;;;;;;;;;3.38;100.00;99168.22;5064189;28;20482;-66
2024/03/23 11:31:38;;;;;;;;;;;;;;;3.48;100.00;99177.81;5062039;28;19936;-67
2024/03/23 11:34:06;;;;;;;;;;;;;;;3.46;100.00;99185.84;5070139;28;19920;-68
2024/03/23 11:36:32;;;;;;;;;;;;;;;3.48;100.00;99188.34;5064299;28;19972;-66
2024/03/23 11:38:57;;;;;;;;;;;;;;;3.49;100.00;99176.84;5065503;28;19920;-68
2024/03/23 11:41:23;;;;;;;;;;;;;;;3.52;100.00;99187.88;5057150;28;19925;-67
2024/03/23 11:43:48;;;;;;;;;;;;;;;3.53;100.00;99192.16;5072760;28;19931;-67
2024/03/23 11:46:22;;;;;;;;;;;;;;;3.58;100.00;99192.50;5067489;28;19924;-67
2024/03/23 11:48:51;;;;;;;;;;;;;;;3.65;100.00;99190.06;5064177;28;20023;-68
2024/03/23 11:51:17;;;;;;;;;;;;;;;3.68;100.00;99185.31;5063489;28;19920;-69
2024/03/23 11:53:42;;;;;;;;;;;;;;;3.76;100.00;99192.47;5070969;28;20330;-66
2024/03/23 11:56:09;;;;;;;;;;;;;;;3.72;100.00;99191.09;5066145;28;19935;-66
2024/03/23 11:58:34;;;;;;;;;;;;;;;3.64;100.00;99204.22;5065193;28;19924;-68
2024/03/23 12:01:04;;;;;;;;;;;;;;;3.50;100.00;99194.28;5063898;28;20315;-67
2024/03/23 12:03:32;;;;;;;;;;;;;;;3.49;100.00;99197.91;5061714;28;19924;-69
2024/03/23 12:06:01;;;;;;;;;;;;;;;3.48;100.00;99204.97;5067871;28;19921;-68
2024/03/23 12:08:31;;;;;;;;;;;;;;;3.44;100.00;99208.88;5060329;28;19924;-67
2024/03/23 12:11:13;;;;;;;;;;;;;;;3.45;100.00;99204.44;5078441;28;19920;-68
2024/03/23 12:13:39;;;;;;;;;;;;;;;3.40;100.00;99197.81;5075308;28;19933;-66
2024/03/23 12:16:11;;;;;;;;;;;;;;;3.33;100.00;99204.69;5064711;28;20399;-70
2024/03/23 12:18:40;;;;;;;;;;;;;;;3.35;100.00;99208.00;5079188;28;19925;-66
2024/03/23 12:21:06;;;;;;;;;;;;;;;3.30;100.00;99215.53;5061789;28;19924;-68
2024/03/23 12:23:32;;;;;;;;;;;;;;;3.35;100.00;99212.44;5054213;28;19971;-67
2024/03/23 12:25:59;;;;;;;;;;;;;;;3.43;100.00;99213.31;5061914;28;19975;-70
2024/03/23 12:28:25;;;;;;;;;;;;;;;3.46;100.00;99221.88;5072577;28;20315;-70
2024/03/23 12:30:51;;;;;;;;;;;;;;;3.34;100.00;99224.75;5061519;28;19959;-67
2024/03/23 12:33:16;;;;;;;;;;;;;;;3.27;100.00;99223.72;5072367;28;19963;-73
2024/03/23 12:35:41;;;;;;;;;;;;;;;3.31;100.00;99214.56;5066956;28;19932;-68
2024/03/23 12:38:07;;;;;;;;;;;;;;;3.39;100.00;99221.66;5060501;28;19966;-69
2024/03/23 12:40:32;;;;;;;;;;;;;;;3.39;100.00;99226.94;5059088;28;19928;-71
2024/03/23 12:42:57;;;;;;;;;;;;;;;3.47;100.00;99220.88;5061363;28;20367;-68